createdAt,value
2019-02-26T00:01:19.158Z,6.37
2019-02-26T00:04:23.201Z,6.43
2019-02-26T00:07:18.265Z,5.60
2019-02-26T00:10:19.790Z,5.83
2019-02-26T00:13:11.386Z,6.37
2019-02-26T00:15:56.879Z,6.73
2019-02-26T00:18:42.635Z,7.77
2019-02-26T00:21:33.643Z,6.13
2019-02-26T00:24:16.905Z,6.33
2019-02-26T00:27:09.629Z,6.33
2019-02-26T00:30:14.366Z,5.97
2019-02-26T00:33:05.359Z,6.00
2019-02-26T00:36:11.196Z,6.30
2019-02-26T00:39:03.446Z,5.63
2019-02-26T00:42:07.194Z,6.17
2019-02-26T00:45:00.127Z,6.77
2019-02-26T00:48:03.342Z,6.57
2019-02-26T00:50:56.177Z,6.77
2019-02-26T00:53:50.837Z,7.10
2019-02-26T00:56:51.323Z,6.70
2019-02-26T00:59:44.067Z,6.80
2019-02-26T01:02:46.821Z,6.70
2019-02-26T01:05:39.182Z,7.10
2019-02-26T01:08:43.086Z,7.13
2019-02-26T01:11:34.555Z,7.20
2019-02-26T01:14:20.244Z,6.93
2019-02-26T01:17:12.616Z,6.70
2019-02-26T01:20:15.922Z,7.30
2019-02-26T01:23:06.998Z,6.83
2019-02-26T01:25:54.226Z,7.93
2019-02-26T01:28:46.158Z,6.47
2019-02-26T01:31:47.854Z,6.77
2019-02-26T01:34:40.415Z,7.40
2019-02-26T01:37:43.377Z,6.53
2019-02-26T01:40:34.339Z,6.33
2019-02-26T01:43:18.344Z,6.20
2019-02-26T01:46:11.511Z,6.53
2019-02-26T01:49:13.511Z,6.60
2019-02-26T01:52:06.227Z,6.33
2019-02-26T01:55:09.384Z,6.27
2019-02-26T01:58:00.331Z,6.27
2019-02-26T02:01:03.564Z,6.30
2019-02-26T02:03:56.120Z,6.37
2019-02-26T02:07:01.383Z,5.93
2019-02-26T02:09:53.186Z,6.40
2019-02-26T02:12:59.577Z,5.67
2019-02-26T02:15:42.260Z,7.10
2019-02-26T02:18:34.803Z,6.37
2019-02-26T02:21:18.462Z,6.80
2019-02-26T02:24:12.623Z,6.03
2019-02-26T02:27:17.534Z,6.73
2019-02-26T02:33:54.767Z,5.83
2019-02-26T02:36:45.687Z,6.03
2019-02-26T02:39:36.721Z,6.80
2019-02-26T02:42:22.060Z,5.93
2019-02-26T02:45:16.202Z,6.30
2019-02-26T02:48:17.023Z,6.40
2019-02-26T02:51:10.609Z,6.43
2019-02-26T02:54:15.336Z,6.20
2019-02-26T02:57:07.475Z,5.90
2019-02-26T03:00:10.289Z,5.50
2019-02-26T03:03:01.256Z,5.97
2019-02-26T03:05:45.906Z,5.77
2019-02-26T03:08:36.821Z,5.87
2019-02-26T03:11:20.023Z,5.60
2019-02-26T03:14:06.247Z,6.07
2019-02-26T03:16:51.431Z,6.23
2019-02-26T03:19:43.663Z,5.97
2019-02-26T03:22:49.178Z,5.73
2019-02-26T03:25:41.463Z,6.03
2019-02-26T03:28:47.413Z,6.17
2019-02-26T03:31:40.889Z,5.80
2019-02-26T03:34:41.282Z,5.70
2019-02-26T03:37:34.603Z,6.03
2019-02-26T03:40:37.318Z,6.10
2019-02-26T03:43:29.277Z,5.40
2019-02-26T03:46:32.578Z,5.80
2019-02-26T03:49:26.306Z,5.70
2019-02-26T03:52:28.945Z,6.20
2019-02-26T03:55:20.735Z,5.67
2019-02-26T03:58:04.673Z,6.20
2019-02-26T04:00:55.682Z,5.60
2019-02-26T04:03:39.561Z,6.57
2019-02-26T04:06:33.402Z,6.23
2019-02-26T04:09:39.138Z,5.50
2019-02-26T04:12:28.927Z,5.70
2019-02-26T04:15:14.886Z,5.57
2019-02-26T04:18:06.328Z,5.80
2019-02-26T04:20:49.141Z,5.40
2019-02-26T04:23:41.404Z,6.00
2019-02-26T04:26:48.691Z,5.73
2019-02-26T04:30:19.029Z,5.60
2019-02-26T04:33:19.366Z,5.60
2019-02-26T04:40:11.026Z,6.03
2019-02-26T04:43:04.854Z,6.33
2019-02-26T04:46:31.025Z,6.33
2019-02-26T04:49:20.260Z,6.23
2019-02-26T04:52:10.214Z,5.87
2019-02-26T04:54:59.006Z,6.33
2019-02-26T04:57:43.346Z,6.70
2019-02-26T05:00:37.968Z,6.50
2019-02-26T05:03:39.032Z,5.63
2019-02-26T05:06:30.506Z,5.90
2019-02-26T05:09:13.542Z,6.17
2019-02-26T05:12:03.860Z,5.90
2019-02-26T05:14:49.282Z,6.03
2019-02-26T05:17:33.293Z,6.77
2019-02-26T05:20:47.955Z,5.97
2019-02-26T05:23:49.527Z,6.57
2019-02-26T05:26:40.694Z,6.00
2019-02-26T05:29:46.646Z,5.90
2019-02-26T05:32:36.697Z,6.53
2019-02-26T05:35:23.390Z,6.97
2019-02-26T05:38:14.889Z,7.23
2019-02-26T05:40:57.982Z,6.47
2019-02-26T05:43:52.190Z,6.33
2019-02-26T05:46:56.218Z,5.90
2019-02-26T05:49:47.188Z,6.90
2019-02-26T05:52:33.095Z,6.63
2019-02-26T05:55:25.635Z,6.60
2019-02-26T05:58:29.557Z,6.47
2019-02-26T06:01:22.509Z,6.60
2019-02-26T06:04:25.099Z,7.17
2019-02-26T06:07:19.285Z,7.07
2019-02-26T06:10:24.650Z,6.30
2019-02-26T06:13:15.719Z,7.03
2019-02-26T06:16:19.772Z,9.53
2019-02-26T06:19:13.352Z,8.77
2019-02-26T06:22:18.196Z,7.60
2019-02-26T06:25:13.897Z,6.80
2019-02-26T06:28:15.389Z,7.33
2019-02-26T06:31:06.425Z,7.20
2019-02-26T06:33:50.575Z,6.97
2019-02-26T06:36:42.083Z,7.43
2019-02-26T06:39:45.593Z,7.17
2019-02-26T06:42:37.947Z,7.10
2019-02-26T06:45:43.138Z,7.23
2019-02-26T06:48:34.312Z,7.43
2019-02-26T06:51:18.997Z,7.57
2019-02-26T06:54:10.456Z,7.13
2019-02-26T06:56:54.019Z,7.60
2019-02-26T06:59:44.406Z,7.03
2019-02-26T07:02:28.958Z,7.53
2019-02-26T07:05:19.515Z,7.23
2019-02-26T07:08:06.618Z,7.30
2019-02-26T07:10:57.087Z,6.97
2019-02-26T07:13:43.956Z,6.40
2019-02-26T07:16:26.661Z,6.50
2019-02-26T07:19:17.064Z,7.20
2019-02-26T07:22:02.789Z,6.67
2019-02-26T07:24:54.210Z,6.57
2019-02-26T07:27:38.436Z,6.93
2019-02-26T07:30:28.894Z,6.43
2019-02-26T07:33:12.268Z,6.20
2019-02-26T07:36:04.160Z,6.77
2019-02-26T07:39:10.366Z,6.80
2019-02-26T07:42:00.952Z,6.93
2019-02-26T07:44:46.424Z,6.70
2019-02-26T07:47:37.100Z,6.70
2019-02-26T07:50:22.209Z,6.07
2019-02-26T07:53:14.505Z,6.67
2019-02-26T07:56:20.659Z,6.83
2019-02-26T07:59:12.590Z,7.53
2019-02-26T08:02:15.912Z,7.67
2019-02-26T08:05:07.967Z,6.13
2019-02-26T08:07:53.858Z,6.87
2019-02-26T08:10:48.154Z,6.97
2019-02-26T08:13:51.604Z,7.30
2019-02-26T08:16:41.862Z,6.53
2019-02-26T08:19:29.465Z,7.10
2019-02-26T08:22:19.463Z,7.07
2019-02-26T08:25:05.354Z,7.00
2019-02-26T08:27:56.508Z,6.70
2019-02-26T08:31:00.191Z,6.90
2019-02-26T08:37:16.932Z,7.60
2019-02-26T08:40:09.745Z,6.90
2019-02-26T08:42:55.443Z,7.07
2019-02-26T08:45:46.183Z,6.93
2019-02-26T08:48:31.779Z,6.57
2019-02-26T08:51:22.166Z,6.63
2019-02-26T08:54:07.725Z,6.73
2019-02-26T08:56:58.130Z,6.93
2019-02-26T08:59:45.435Z,6.57
2019-02-26T09:02:35.963Z,6.67
2019-02-26T09:05:23.310Z,7.07
2019-02-26T09:08:15.402Z,6.97
2019-02-26T09:11:18.236Z,7.50
2019-02-26T09:14:09.790Z,7.27
2019-02-26T09:17:13.650Z,7.57
2019-02-26T09:20:09.691Z,8.23
2019-02-26T09:23:11.021Z,7.93
2019-02-26T09:26:02.567Z,8.70
2019-02-26T09:29:06.550Z,7.97
2019-02-26T09:31:56.890Z,8.00
2019-02-26T09:34:40.796Z,8.33
2019-02-26T09:37:31.172Z,8.20
2019-02-26T09:40:17.871Z,7.67
2019-02-26T09:43:08.643Z,8.27
2019-02-26T09:46:14.509Z,8.90
2019-02-26T09:49:05.098Z,8.43
2019-02-26T09:52:08.939Z,8.50
2019-02-26T09:54:59.314Z,8.93
2019-02-26T09:58:02.652Z,9.03
2019-02-26T10:00:54.243Z,8.90
2019-02-26T10:03:39.087Z,8.53
2019-02-26T10:06:29.928Z,8.67
2019-02-26T10:09:34.872Z,8.97
2019-02-26T10:12:27.441Z,9.70
2019-02-26T10:15:32.356Z,9.30
2019-02-26T10:18:15.372Z,8.93
2019-02-26T10:21:08.533Z,9.20
2019-02-26T10:24:10.839Z,8.87
2019-02-26T10:27:05.471Z,8.73
2019-02-26T10:30:10.620Z,9.37
2019-02-26T10:33:02.787Z,8.13
2019-02-26T10:36:05.429Z,8.17
2019-02-26T10:38:57.670Z,7.97
2019-02-26T10:42:02.527Z,8.20
2019-02-26T10:44:53.054Z,8.20
2019-02-26T10:47:35.806Z,8.47
2019-02-26T10:50:31.039Z,8.27
2019-02-26T10:53:30.806Z,8.57
2019-02-26T10:56:21.180Z,8.03
2019-02-26T10:59:09.296Z,6.93
2019-02-26T11:02:00.744Z,8.13
2019-02-26T11:05:03.330Z,7.90
2019-02-26T11:07:55.737Z,7.47
2019-02-26T11:10:58.168Z,7.30
2019-02-26T11:13:43.579Z,7.70
2019-02-26T11:16:35.737Z,6.87
2019-02-26T11:19:41.575Z,6.93
2019-02-26T11:22:30.674Z,7.20
2019-02-26T11:25:18.417Z,7.40
2019-02-26T11:28:10.514Z,7.17
2019-02-26T11:31:14.118Z,6.60
2019-02-26T11:34:09.850Z,7.07
2019-02-26T11:37:11.228Z,6.80
2019-02-26T11:40:02.878Z,6.70
2019-02-26T11:43:11.758Z,6.17
2019-02-26T11:45:59.208Z,6.43
2019-02-26T11:49:03.122Z,6.70
2019-02-26T11:51:54.563Z,5.90
2019-02-26T11:54:39.707Z,6.00
2019-02-26T11:57:34.884Z,5.30
2019-02-26T12:04:03.290Z,5.53
2019-02-26T12:07:04.118Z,5.37
2019-02-26T12:12:56.742Z,6.67
2019-02-26T12:15:48.380Z,5.20
2019-02-26T12:18:31.184Z,4.93
2019-02-26T12:21:40.394Z,4.90
2019-02-26T12:24:24.185Z,4.60
2019-02-26T12:30:20.743Z,3.60
2019-02-26T12:33:23.553Z,4.13
2019-02-26T12:36:35.515Z,5.70
2019-02-26T12:39:38.152Z,5.83
2019-02-26T12:42:41.083Z,5.30
2019-02-26T12:45:52.018Z,5.03
2019-02-26T12:48:55.849Z,5.50
2019-02-26T12:52:06.115Z,5.07
2019-02-26T12:55:10.421Z,5.77
2019-02-26T12:58:23.677Z,5.20
2019-02-26T13:01:25.043Z,5.00
2019-02-26T13:04:37.792Z,5.10
2019-02-26T13:07:40.001Z,5.70
2019-02-26T13:10:46.691Z,6.30
2019-02-26T13:13:54.841Z,5.70
2019-02-26T13:17:00.093Z,6.30
2019-02-26T13:20:12.177Z,7.50
2019-02-26T13:23:19.455Z,8.53
2019-02-26T13:26:26.871Z,8.07
2019-02-26T13:29:29.406Z,8.43
2019-02-26T13:32:55.200Z,8.90
2019-02-26T13:35:46.733Z,8.33
2019-02-26T13:38:56.814Z,8.40
2019-02-26T13:42:09.191Z,7.70
2019-02-26T13:49:01.949Z,6.20
2019-02-26T13:52:05.215Z,6.07
2019-02-26T13:55:08.493Z,6.50
2019-02-26T13:58:18.766Z,6.50
2019-02-26T14:01:21.723Z,6.47
2019-02-26T14:04:32.014Z,6.93
2019-02-26T14:07:35.143Z,7.53
2019-02-26T14:10:45.524Z,7.30
2019-02-26T14:13:48.786Z,6.57
2019-02-26T14:16:49.544Z,6.37
2019-02-26T14:19:59.142Z,6.70
2019-02-26T14:23:02.264Z,5.90
2019-02-26T14:26:12.583Z,6.30
2019-02-26T14:29:15.245Z,6.73
2019-02-26T14:32:25.529Z,6.63
2019-02-26T14:35:28.797Z,8.00
2019-02-26T14:38:39.103Z,6.93
2019-02-26T14:41:42.409Z,7.17
2019-02-26T14:44:52.681Z,6.97
2019-02-26T14:47:56.003Z,6.10
2019-02-26T14:50:58.971Z,6.97
2019-02-26T14:57:32.375Z,5.87
2019-02-26T15:00:58.173Z,5.90
2019-02-26T15:04:07.121Z,6.20
2019-02-26T15:07:10.276Z,6.20
2019-02-26T15:10:20.656Z,5.43
2019-02-26T15:13:25.459Z,5.80
2019-02-26T15:16:35.801Z,5.73
2019-02-26T15:19:49.467Z,6.33
2019-02-26T15:22:51.233Z,6.13
2019-02-26T15:25:54.236Z,5.80
2019-02-26T15:29:04.563Z,6.00
2019-02-26T15:32:07.095Z,5.67
2019-02-26T15:35:17.395Z,6.73
2019-02-26T15:38:20.894Z,6.53
2019-02-26T15:41:31.158Z,6.97
2019-02-26T15:44:34.032Z,7.00
2019-02-26T15:47:44.298Z,6.90
2019-02-26T15:50:47.017Z,7.57
2019-02-26T15:53:57.265Z,8.20
2019-02-26T15:57:00.488Z,7.40
2019-02-26T16:03:13.105Z,8.00
2019-02-26T16:06:16.116Z,7.13
2019-02-26T16:09:19.405Z,7.17
2019-02-26T16:15:37.960Z,6.93
2019-02-26T16:18:48.233Z,7.10
2019-02-26T16:21:51.039Z,6.23
2019-02-26T16:25:01.333Z,10.00
2019-02-26T16:28:03.782Z,7.00
2019-02-26T16:31:14.045Z,6.20
2019-02-26T16:34:17.537Z,6.03
2019-02-26T16:37:29.267Z,6.03
2019-02-26T16:40:32.504Z,6.30
2019-02-26T16:43:42.685Z,6.27
2019-02-26T16:46:45.995Z,6.83
2019-02-26T16:49:56.257Z,6.03
2019-02-26T16:53:01.225Z,6.63
2019-02-26T16:56:11.862Z,7.20
2019-02-26T16:59:14.448Z,8.20
2019-02-26T17:02:16.992Z,7.90
2019-02-26T17:05:27.262Z,7.53
2019-02-26T17:08:32.119Z,8.50
2019-02-26T17:11:44.550Z,8.93
2019-02-26T17:14:50.456Z,9.20
2019-02-26T17:17:58.594Z,9.83
2019-02-26T17:21:01.702Z,10.17
2019-02-26T17:24:04.225Z,10.40
2019-02-26T17:27:14.511Z,9.87
2019-02-26T17:30:17.648Z,11.37
2019-02-26T17:33:27.944Z,10.53
2019-02-26T17:36:32.596Z,10.40
2019-02-26T17:39:43.163Z,10.80
2019-02-26T17:42:48.904Z,11.13
2019-02-26T17:45:58.443Z,10.77
2019-02-26T17:49:02.932Z,10.80
2019-02-26T17:52:13.683Z,10.37
2019-02-26T17:55:17.123Z,10.50
2019-02-26T17:58:27.388Z,10.90
2019-02-26T18:01:30.743Z,11.50
2019-02-26T18:04:41.026Z,11.17
2019-02-26T18:07:43.594Z,18.60
2019-02-26T18:10:47.424Z,11.00
2019-02-26T18:13:50.847Z,10.33
2019-02-26T18:16:54.177Z,10.50
2019-02-26T18:20:05.008Z,10.57
2019-02-26T18:23:08.058Z,11.07
2019-02-26T18:26:10.889Z,13.00
2019-02-26T18:29:21.194Z,10.63
2019-02-26T18:32:24.154Z,10.37
2019-02-26T18:35:34.471Z,10.60
2019-02-26T18:38:36.928Z,12.07
2019-02-26T18:41:50.746Z,11.27
2019-02-26T18:44:51.868Z,11.23
2019-02-26T18:47:56.223Z,11.30
2019-02-26T18:51:02.037Z,10.70
2019-02-26T18:54:03.990Z,11.00
2019-02-26T18:57:14.467Z,11.20
2019-02-26T19:00:25.627Z,10.87
2019-02-26T19:03:31.976Z,10.63
2019-02-26T19:06:34.693Z,10.73
2019-02-26T19:09:37.397Z,10.57
2019-02-26T19:12:47.688Z,9.90
2019-02-26T19:15:50.663Z,10.63
2019-02-26T19:19:00.947Z,9.77
2019-02-26T19:22:03.139Z,9.70
2019-02-26T19:25:13.452Z,10.13
2019-02-26T19:28:16.827Z,9.97
2019-02-26T19:31:27.162Z,9.87
2019-02-26T19:34:29.629Z,10.83
2019-02-26T19:37:32.681Z,9.87
2019-02-26T19:40:43.276Z,10.67
2019-02-26T19:43:46.669Z,10.13
2019-02-26T19:46:56.971Z,14.20
2019-02-26T19:50:00.466Z,11.43
2019-02-26T19:53:10.855Z,10.30
2019-02-26T19:56:13.553Z,9.67
2019-02-26T19:59:16.731Z,10.10
2019-02-26T20:02:26.999Z,10.00
2019-02-26T20:05:30.241Z,9.40
2019-02-26T20:08:33.418Z,9.93
2019-02-26T20:11:43.685Z,9.63
2019-02-26T20:14:48.614Z,10.63
2019-02-26T20:17:58.535Z,9.73
2019-02-26T20:21:01.708Z,10.13
2019-02-26T20:24:12.019Z,10.07
2019-02-26T20:27:14.745Z,10.27
2019-02-26T20:30:25.056Z,10.50
2019-02-26T20:33:27.657Z,9.77
2019-02-26T20:36:38.022Z,11.00
2019-02-26T20:39:41.665Z,10.57
2019-02-26T20:42:52.607Z,11.47
2019-02-26T20:45:55.708Z,10.40
2019-02-26T20:49:06.021Z,10.67
2019-02-26T20:52:09.186Z,10.40
2019-02-26T20:55:20.153Z,10.23
2019-02-26T20:58:22.907Z,10.80
2019-02-26T21:01:26.197Z,11.40
2019-02-26T21:04:29.232Z,10.80
2019-02-26T21:07:39.529Z,10.27
2019-02-26T21:10:42.370Z,11.20
2019-02-26T21:13:52.685Z,10.97
2019-02-26T21:16:55.985Z,10.80
2019-02-26T21:19:59.080Z,11.47
2019-02-26T21:23:09.513Z,11.43
2019-02-26T21:26:13.068Z,11.90
2019-02-26T21:29:16.207Z,10.90
2019-02-26T21:32:26.570Z,11.63
2019-02-26T21:35:29.426Z,13.07
2019-02-26T21:38:39.721Z,11.17
2019-02-26T21:41:42.522Z,11.07
2019-02-26T21:44:52.820Z,11.27
2019-02-26T21:47:55.342Z,10.27
2019-02-26T21:51:06.873Z,11.30
2019-02-26T21:54:10.134Z,11.77
2019-02-26T21:57:21.781Z,10.83
2019-02-26T22:00:25.460Z,10.47
2019-02-26T22:03:35.890Z,10.87
2019-02-26T22:06:39.958Z,10.43
2019-02-26T22:09:50.274Z,10.87
2019-02-26T22:12:56.626Z,10.80
2019-02-26T22:16:04.822Z,10.50
2019-02-26T22:19:08.312Z,10.67
2019-02-26T22:22:18.650Z,9.63
2019-02-26T22:25:21.560Z,10.57
2019-02-26T22:28:31.851Z,9.90
2019-02-26T22:31:35.180Z,10.90
2019-02-26T22:34:45.443Z,11.50
2019-02-26T22:37:48.177Z,10.83
2019-02-26T22:40:59.893Z,11.27
2019-02-26T22:44:03.047Z,11.63
2019-02-26T22:47:13.672Z,11.30
2019-02-26T22:50:18.433Z,11.10
2019-02-26T22:53:09.829Z,11.57
2019-02-26T22:55:53.774Z,11.60
2019-02-26T22:58:46.562Z,11.10
2019-02-26T23:01:36.571Z,11.27
2019-02-26T23:04:48.078Z,10.67
2019-02-26T23:07:50.817Z,9.57
2019-02-26T23:10:52.091Z,11.97
2019-02-26T23:16:45.336Z,10.83
2019-02-26T23:19:36.584Z,9.83
2019-02-26T23:22:40.507Z,9.90
2019-02-26T23:25:33.661Z,9.70
2019-02-26T23:28:36.669Z,10.97
2019-02-26T23:31:27.606Z,10.07
2019-02-26T23:37:27.561Z,8.43
2019-02-26T23:40:29.328Z,9.07
2019-02-26T23:43:20.227Z,8.97
2019-02-26T23:46:04.534Z,9.47
2019-02-26T23:48:55.449Z,8.83
2019-02-26T23:51:39.502Z,9.47
2019-02-26T23:54:30.386Z,8.57
2019-02-26T23:57:14.258Z,8.93
